createdAt,value
2023-05-10T00:01:56.219Z,15.70
2023-05-10T00:04:28.341Z,15.70
2023-05-10T00:06:56.349Z,15.60
2023-05-10T00:09:26.866Z,15.60
2023-05-10T00:11:54.827Z,15.60
2023-05-10T00:14:22.793Z,15.60
2023-05-10T00:16:50.806Z,15.60
2023-05-10T00:19:20.399Z,15.60
2023-05-10T00:21:49.845Z,15.60
2023-05-10T00:24:17.774Z,15.50
2023-05-10T00:26:45.797Z,15.50
2023-05-10T00:29:13.860Z,15.40
2023-05-10T00:31:41.964Z,15.40
2023-05-10T00:34:12.898Z,15.50
2023-05-10T00:36:40.915Z,15.40
2023-05-10T00:39:10.290Z,15.40
2023-05-10T00:41:38.244Z,15.40
2023-05-10T00:44:06.302Z,15.30
2023-05-10T00:46:34.387Z,15.30
2023-05-10T00:49:02.496Z,15.30
2023-05-10T00:51:33.259Z,15.30
2023-05-10T00:54:01.258Z,15.30
2023-05-10T00:56:30.907Z,15.30
2023-05-10T00:58:58.919Z,15.30
2023-05-10T01:01:27.148Z,15.40
2023-05-10T01:03:55.209Z,15.40
2023-05-10T01:06:23.248Z,15.40
2023-05-10T01:08:51.325Z,15.30
2023-05-10T01:11:19.336Z,15.40
2023-05-10T01:13:52.378Z,15.40
2023-05-10T01:16:20.412Z,15.40
2023-05-10T01:18:48.559Z,15.40
2023-05-10T01:21:21.549Z,15.40
2023-05-10T01:24:05.642Z,15.40
2023-05-10T01:26:56.880Z,15.40
2023-05-10T01:29:39.931Z,15.40
2023-05-10T01:32:17.974Z,15.30
2023-05-10T01:34:49.837Z,15.30
2023-05-10T01:37:20.554Z,15.30
2023-05-10T01:39:51.939Z,15.20
2023-05-10T01:42:22.956Z,15.20
2023-05-10T01:44:53.901Z,15.20
2023-05-10T01:47:30.973Z,15.20
2023-05-10T01:50:04.212Z,15.20
2023-05-10T01:52:34.034Z,15.20
2023-05-10T01:55:03.632Z,15.10
2023-05-10T01:57:34.895Z,15.10
2023-05-10T02:00:03.868Z,15.10
2023-05-10T02:02:35.192Z,15.10
2023-05-10T02:05:10.744Z,15.10
2023-05-10T02:07:38.706Z,15.10
2023-05-10T02:10:08.256Z,15.10
2023-05-10T02:12:38.109Z,15.20
2023-05-10T02:15:09.478Z,15.10
2023-05-10T02:17:39.616Z,15.10
2023-05-10T02:20:08.684Z,15.10
2023-05-10T02:22:37.607Z,15.10
2023-05-10T02:25:08.048Z,15.10
2023-05-10T02:27:37.008Z,15.10
2023-05-10T02:30:05.517Z,15.10
2023-05-10T02:32:33.746Z,15.00
2023-05-10T02:35:03.946Z,15.10
2023-05-10T02:37:33.240Z,15.10
2023-05-10T02:40:01.735Z,15.10
2023-05-10T02:42:34.753Z,15.10
2023-05-10T02:45:03.564Z,15.10
2023-05-10T02:47:33.341Z,15.00
2023-05-10T02:50:02.809Z,15.00
2023-05-10T02:52:35.550Z,15.00
2023-05-10T02:55:06.092Z,15.00
2023-05-10T02:57:35.465Z,15.00
2023-05-10T03:00:04.283Z,15.00
2023-05-10T03:02:33.206Z,15.00
2023-05-10T03:05:01.258Z,15.00
2023-05-10T03:07:30.860Z,15.00
2023-05-10T03:09:58.842Z,15.00
2023-05-10T03:12:33.806Z,15.00
2023-05-10T03:15:04.425Z,15.00
2023-05-10T03:17:32.734Z,15.00
2023-05-10T03:20:05.463Z,15.00
2023-05-10T03:22:38.296Z,15.00
2023-05-10T03:25:07.623Z,15.00
2023-05-10T03:27:37.472Z,15.10
2023-05-10T03:30:07.757Z,15.10
2023-05-10T03:32:35.835Z,15.00
2023-05-10T03:35:08.460Z,15.00
2023-05-10T03:37:37.853Z,14.90
2023-05-10T03:40:06.258Z,14.80
2023-05-10T03:42:34.240Z,14.80
2023-05-10T03:45:02.178Z,14.80
2023-05-10T03:47:32.577Z,14.80
2023-05-10T03:50:00.599Z,14.90
2023-05-10T03:52:28.571Z,14.80
2023-05-10T03:54:57.913Z,14.80
2023-05-10T03:57:25.892Z,14.80
2023-05-10T03:59:53.880Z,14.70
2023-05-10T04:02:21.922Z,14.60
2023-05-10T04:04:50.241Z,14.70
2023-05-10T04:07:18.972Z,14.60
2023-05-10T04:09:46.910Z,14.60
2023-05-10T04:12:16.235Z,14.60
2023-05-10T04:14:44.157Z,14.50
2023-05-10T04:17:13.888Z,14.50
2023-05-10T04:19:41.929Z,14.50
2023-05-10T04:22:09.873Z,14.40
2023-05-10T04:24:37.820Z,14.40
2023-05-10T04:27:05.784Z,14.40
2023-05-10T04:29:35.075Z,14.40
2023-05-10T04:32:03.122Z,14.30
2023-05-10T04:34:35.074Z,14.30
2023-05-10T04:37:03.061Z,14.20
2023-05-10T04:39:31.261Z,14.20
2023-05-10T04:41:59.220Z,14.20
2023-05-10T04:44:28.917Z,14.20
2023-05-10T04:46:58.251Z,14.10
2023-05-10T04:49:28.760Z,14.20
2023-05-10T04:51:56.734Z,14.10
2023-05-10T04:54:28.863Z,14.10
2023-05-10T04:56:57.193Z,14.10
2023-05-10T04:59:25.278Z,14.00
2023-05-10T05:01:53.301Z,13.90
2023-05-10T05:04:26.035Z,13.80
2023-05-10T05:06:54.178Z,13.80
2023-05-10T05:09:22.190Z,13.80
2023-05-10T05:11:50.309Z,13.70
2023-05-10T05:14:19.389Z,13.60
2023-05-10T05:16:50.238Z,13.60
2023-05-10T05:19:18.202Z,13.60
2023-05-10T05:21:47.681Z,13.60
2023-05-10T05:24:15.642Z,13.60
2023-05-10T05:26:46.452Z,13.60
2023-05-10T05:29:14.446Z,13.50
2023-05-10T05:31:42.431Z,13.50
2023-05-10T05:34:10.397Z,13.50
2023-05-10T05:39:23.348Z,13.40
2023-05-10T05:41:51.351Z,13.50
2023-05-10T05:44:19.268Z,13.40
2023-05-10T05:46:47.288Z,13.40
2023-05-10T05:49:15.257Z,13.40
2023-05-10T05:51:44.409Z,13.50
2023-05-10T05:54:16.401Z,13.40
2023-05-10T05:56:48.668Z,13.50
2023-05-10T05:59:16.606Z,13.40
2023-05-10T06:01:44.616Z,13.40
2023-05-10T06:04:13.403Z,13.50
2023-05-10T06:06:41.392Z,13.40
2023-05-10T06:09:09.535Z,13.40
2023-05-10T06:11:37.752Z,13.40
2023-05-10T06:14:08.837Z,13.40
2023-05-10T06:16:37.065Z,13.40
2023-05-10T06:19:05.308Z,13.40
2023-05-10T06:21:33.458Z,13.40
2023-05-10T06:24:01.500Z,13.40
2023-05-10T06:26:29.468Z,13.40
2023-05-10T06:28:57.418Z,13.50
2023-05-10T06:31:26.820Z,13.40
2023-05-10T06:33:56.675Z,13.40
2023-05-10T06:36:25.896Z,13.40
2023-05-10T06:38:53.978Z,13.40
2023-05-10T06:41:23.966Z,13.50
2023-05-10T06:43:52.721Z,13.50
2023-05-10T06:46:20.703Z,13.50
2023-05-10T06:48:50.077Z,13.40
2023-05-10T06:51:18.891Z,13.50
2023-05-10T06:53:46.849Z,13.50
2023-05-10T06:56:14.952Z,13.50
2023-05-10T06:58:42.953Z,13.50
2023-05-10T07:01:11.147Z,13.50
2023-05-10T07:03:39.312Z,13.50
2023-05-10T07:06:15.699Z,13.50
2023-05-10T07:08:46.598Z,13.50
2023-05-10T07:11:14.560Z,13.60
2023-05-10T07:13:45.148Z,13.60
2023-05-10T07:16:13.216Z,13.30
2023-05-10T07:18:41.215Z,13.60
2023-05-10T07:21:10.678Z,13.60
2023-05-10T07:23:38.734Z,13.60
2023-05-10T07:26:06.894Z,13.50
2023-05-10T07:28:34.848Z,13.40
2023-05-10T07:31:02.852Z,13.40
2023-05-10T07:33:30.824Z,13.50
2023-05-10T07:35:58.782Z,13.50
2023-05-10T07:38:28.106Z,13.50
2023-05-10T07:40:56.345Z,13.50
2023-05-10T07:43:24.321Z,13.60
2023-05-10T07:45:55.423Z,13.60
2023-05-10T07:48:24.180Z,13.50
2023-05-10T07:50:52.156Z,13.60
2023-05-10T07:53:20.272Z,13.60
2023-05-10T07:55:53.602Z,13.60
2023-05-10T07:58:21.548Z,13.40
2023-05-10T08:00:50.207Z,13.40
2023-05-10T08:03:18.333Z,13.50
2023-05-10T08:05:46.449Z,13.50
2023-05-10T08:08:14.559Z,13.40
2023-05-10T08:10:42.607Z,13.30
2023-05-10T08:13:12.313Z,13.40
2023-05-10T08:15:40.353Z,13.40
2023-05-10T08:18:08.450Z,13.40
2023-05-10T08:20:36.453Z,13.50
2023-05-10T08:23:04.463Z,13.50
2023-05-10T08:25:33.384Z,13.40
2023-05-10T08:28:01.424Z,13.50
2023-05-10T08:30:30.987Z,13.50
2023-05-10T08:32:59.010Z,13.50
2023-05-10T08:35:27.173Z,13.60
2023-05-10T08:37:55.160Z,13.60
2023-05-10T08:40:23.141Z,13.60
2023-05-10T08:42:56.706Z,13.50
2023-05-10T08:45:25.131Z,13.60
2023-05-10T08:47:54.936Z,13.60
2023-05-10T08:50:23.626Z,13.60
2023-05-10T08:52:53.088Z,13.50
2023-05-10T08:55:21.124Z,13.60
2023-05-10T08:57:49.124Z,13.60
2023-05-10T09:00:17.430Z,13.70
2023-05-10T09:02:46.890Z,13.80
2023-05-10T09:05:17.397Z,13.90
2023-05-10T09:07:45.698Z,13.90
2023-05-10T09:10:13.901Z,13.80
2023-05-10T09:12:42.451Z,13.80
2023-05-10T09:15:11.183Z,13.80
2023-05-10T09:17:40.790Z,13.70
2023-05-10T09:20:09.224Z,13.80
2023-05-10T09:22:38.770Z,13.80
2023-05-10T09:25:07.857Z,13.70
2023-05-10T09:27:35.878Z,13.70
2023-05-10T09:30:03.965Z,13.70
2023-05-10T09:32:38.725Z,13.80
2023-05-10T09:35:10.442Z,13.70
2023-05-10T09:37:42.326Z,13.80
2023-05-10T09:40:13.656Z,13.80
2023-05-10T09:42:42.547Z,13.80
2023-05-10T09:45:11.035Z,13.80
2023-05-10T09:47:39.092Z,13.80
2023-05-10T09:50:07.757Z,13.80
2023-05-10T09:52:48.412Z,13.80
2023-05-10T09:55:16.854Z,13.90
2023-05-10T09:57:45.114Z,14.00
2023-05-10T10:00:18.435Z,14.20
2023-05-10T10:02:47.686Z,14.20
2023-05-10T10:05:16.068Z,14.40
2023-05-10T10:07:45.693Z,14.60
2023-05-10T10:10:14.191Z,14.70
2023-05-10T10:12:42.752Z,14.80
2023-05-10T10:15:11.157Z,14.70
2023-05-10T10:17:40.134Z,14.60
2023-05-10T10:20:11.803Z,14.60
2023-05-10T10:22:40.152Z,14.60
2023-05-10T10:25:10.009Z,14.60
2023-05-10T10:27:43.947Z,14.60
2023-05-10T10:30:17.270Z,14.70
2023-05-10T10:32:54.080Z,14.90
2023-05-10T10:35:22.347Z,14.80
2023-05-10T10:37:52.075Z,14.80
2023-05-10T10:40:33.607Z,14.60
2023-05-10T10:43:17.562Z,14.50
2023-05-10T10:45:45.631Z,14.40
2023-05-10T10:48:22.449Z,14.40
2023-05-10T10:50:57.891Z,14.30
2023-05-10T10:53:27.988Z,14.30
2023-05-10T10:56:07.119Z,14.40
2023-05-10T10:58:36.065Z,14.40
2023-05-10T11:01:17.037Z,14.40
2023-05-10T11:04:16.641Z,14.50
2023-05-10T11:06:44.782Z,14.60
2023-05-10T11:09:13.338Z,14.50
2023-05-10T11:11:53.069Z,14.50
2023-05-10T11:14:22.135Z,14.60
2023-05-10T11:16:50.308Z,14.60
2023-05-10T11:19:18.709Z,14.80
2023-05-10T11:21:47.575Z,14.80
2023-05-10T11:24:16.184Z,14.90
2023-05-10T11:26:44.197Z,14.90
2023-05-10T11:29:14.351Z,14.80
2023-05-10T11:31:46.224Z,14.70
2023-05-10T11:34:24.522Z,14.60
2023-05-10T11:36:54.782Z,14.50
2023-05-10T11:39:23.115Z,14.40
2023-05-10T11:41:51.482Z,14.30
2023-05-10T11:44:21.018Z,14.20
2023-05-10T11:46:49.083Z,14.20
2023-05-10T11:49:17.157Z,14.20
2023-05-10T11:51:45.127Z,14.30
2023-05-10T11:54:13.370Z,14.30
2023-05-10T11:56:41.889Z,14.30
2023-05-10T11:59:09.992Z,14.20
2023-05-10T12:01:39.423Z,14.20
2023-05-10T12:04:07.812Z,14.10
2023-05-10T12:06:42.868Z,14.10
2023-05-10T12:09:11.354Z,14.00
2023-05-10T12:11:42.545Z,14.00
2023-05-10T12:14:12.245Z,14.00
2023-05-10T12:16:41.874Z,14.00
2023-05-10T12:19:10.186Z,14.00
2023-05-10T12:21:39.752Z,14.00
2023-05-10T12:24:07.932Z,14.10
2023-05-10T12:26:37.420Z,14.00
2023-05-10T12:29:14.705Z,14.10
2023-05-10T12:31:57.069Z,14.10
2023-05-10T12:34:28.223Z,14.00
2023-05-10T12:36:56.530Z,14.10
2023-05-10T12:39:24.596Z,14.20
2023-05-10T12:41:52.580Z,14.20
2023-05-10T12:44:20.610Z,14.20
2023-05-10T12:46:48.680Z,14.20
2023-05-10T12:49:19.904Z,14.30
2023-05-10T12:51:47.937Z,14.40
2023-05-10T12:54:16.056Z,14.50
2023-05-10T12:56:45.106Z,14.60
2023-05-10T12:59:13.074Z,14.70
2023-05-10T13:01:41.204Z,14.80
2023-05-10T13:04:09.360Z,14.80
2023-05-10T13:06:38.773Z,14.90
2023-05-10T13:09:06.777Z,14.90
2023-05-10T13:11:34.873Z,15.00
2023-05-10T13:14:04.154Z,15.10
2023-05-10T13:16:32.211Z,15.00
2023-05-10T13:19:00.536Z,15.00
2023-05-10T13:21:28.934Z,14.90
2023-05-10T13:23:58.875Z,14.90
2023-05-10T13:26:27.217Z,14.90
2023-05-10T13:28:56.539Z,14.90
2023-05-10T13:31:24.726Z,14.80
2023-05-10T13:33:52.937Z,14.80
2023-05-10T13:36:21.087Z,14.80
2023-05-10T13:38:49.046Z,14.80
2023-05-10T13:41:18.641Z,14.80
2023-05-10T13:43:46.683Z,14.80
2023-05-10T13:46:14.700Z,14.80
2023-05-10T13:48:42.754Z,14.90
2023-05-10T13:51:12.875Z,15.10
2023-05-10T13:53:40.846Z,15.30
2023-05-10T13:56:08.878Z,15.40
2023-05-10T13:58:38.174Z,15.60
2023-05-10T14:01:06.823Z,15.60
2023-05-10T14:03:34.871Z,15.50
2023-05-10T14:06:03.449Z,15.60
2023-05-10T14:08:31.441Z,15.50
2023-05-10T14:10:59.425Z,15.40
2023-05-10T14:13:27.393Z,15.40
2023-05-10T14:15:56.976Z,15.40
2023-05-10T14:18:25.074Z,15.30
2023-05-10T14:20:53.083Z,15.30
2023-05-10T14:23:24.983Z,15.20
2023-05-10T14:25:53.082Z,15.80
2023-05-10T14:28:21.755Z,15.20
2023-05-10T14:30:49.803Z,15.20
2023-05-10T14:33:19.459Z,15.20
2023-05-10T14:35:47.630Z,15.20
2023-05-10T14:38:15.624Z,15.20
2023-05-10T14:40:43.904Z,15.30
2023-05-10T14:43:11.922Z,15.40
2023-05-10T14:45:39.929Z,15.50
2023-05-10T14:48:12.106Z,15.60
2023-05-10T14:50:41.728Z,15.60
2023-05-10T14:53:09.887Z,15.50
2023-05-10T14:55:37.981Z,15.50
2023-05-10T14:58:06.038Z,15.50
2023-05-10T15:00:34.059Z,15.50
2023-05-10T15:03:03.493Z,15.40
2023-05-10T15:05:31.935Z,15.30
2023-05-10T15:08:01.963Z,15.30
2023-05-10T15:10:30.545Z,15.20
2023-05-10T15:12:59.636Z,15.20
2023-05-10T15:15:27.744Z,15.20
2023-05-10T15:17:55.750Z,15.30
2023-05-10T15:20:23.745Z,15.30
2023-05-10T15:22:51.819Z,15.30
2023-05-10T15:25:21.380Z,15.30
2023-05-10T15:27:49.457Z,15.30
2023-05-10T15:30:17.468Z,15.40
2023-05-10T15:32:45.504Z,15.40
2023-05-10T15:35:13.509Z,15.50
2023-05-10T15:37:41.508Z,15.60
2023-05-10T15:40:09.849Z,15.70
2023-05-10T15:42:39.403Z,15.80
2023-05-10T15:45:08.099Z,15.70
2023-05-10T15:47:36.218Z,15.90
2023-05-10T15:50:04.390Z,16.00
2023-05-10T15:52:32.402Z,16.20
2023-05-10T15:55:00.381Z,16.30
2023-05-10T15:57:28.482Z,16.40
2023-05-10T15:59:58.226Z,16.70
2023-05-10T16:02:26.255Z,16.70
2023-05-10T16:04:54.349Z,16.60
2023-05-10T16:07:22.390Z,16.50
2023-05-10T16:09:50.471Z,16.60
2023-05-10T16:12:18.461Z,16.60
2023-05-10T16:14:46.435Z,16.60
2023-05-10T16:17:16.307Z,16.60
2023-05-10T16:19:44.622Z,16.60
2023-05-10T16:22:12.613Z,16.60
2023-05-10T16:24:40.580Z,16.50
2023-05-10T16:27:08.541Z,16.40
2023-05-10T16:29:36.640Z,16.30
2023-05-10T16:32:04.650Z,16.30
2023-05-10T16:34:34.105Z,16.30
2023-05-10T16:37:02.094Z,16.40
2023-05-10T16:39:30.168Z,16.40
2023-05-10T16:41:58.121Z,16.40
2023-05-10T16:44:26.208Z,16.30
2023-05-10T16:46:54.993Z,16.20
2023-05-10T16:49:24.489Z,16.20
2023-05-10T16:51:55.369Z,16.20
2023-05-10T16:54:23.574Z,16.10
2023-05-10T16:56:51.835Z,16.10
2023-05-10T16:59:19.921Z,16.20
2023-05-10T17:01:48.194Z,16.20
2023-05-10T17:04:16.468Z,16.20
2023-05-10T17:06:44.528Z,16.00
2023-05-10T17:09:14.009Z,16.00
2023-05-10T17:11:42.636Z,16.00
2023-05-10T17:14:10.913Z,15.90
2023-05-10T17:16:38.954Z,16.10
2023-05-10T17:19:07.172Z,16.20
2023-05-10T17:21:35.218Z,16.40
2023-05-10T17:24:03.217Z,16.50
2023-05-10T17:26:32.601Z,16.70
2023-05-10T17:29:00.602Z,16.80
2023-05-10T17:31:28.722Z,16.90
2023-05-10T17:33:56.927Z,16.90
2023-05-10T17:36:25.018Z,16.90
2023-05-10T17:38:53.014Z,16.90
2023-05-10T17:41:21.716Z,16.80
2023-05-10T17:43:51.181Z,16.60
2023-05-10T17:46:19.187Z,16.40
2023-05-10T17:48:47.324Z,16.20
2023-05-10T17:51:15.349Z,16.30
2023-05-10T17:53:43.341Z,16.20
2023-05-10T17:56:11.340Z,16.20
2023-05-10T17:58:39.309Z,16.20
2023-05-10T18:01:08.667Z,16.20
2023-05-10T18:03:36.711Z,16.10
2023-05-10T18:06:05.111Z,16.00
2023-05-10T18:08:33.855Z,16.00
2023-05-10T18:11:02.031Z,16.00
2023-05-10T18:13:30.072Z,16.00
2023-05-10T18:15:58.067Z,15.90
2023-05-10T18:18:27.414Z,15.90
2023-05-10T18:21:13.774Z,15.90
2023-05-10T18:23:41.927Z,15.80
2023-05-10T18:26:09.941Z,15.80
2023-05-10T18:28:40.812Z,15.70
2023-05-10T18:31:08.904Z,15.70
2023-05-10T18:33:38.394Z,15.70
2023-05-10T18:36:06.861Z,15.60
2023-05-10T18:38:34.996Z,15.60
2023-05-10T18:41:03.021Z,15.50
2023-05-10T18:43:30.974Z,15.50
2023-05-10T18:45:58.957Z,15.50
2023-05-10T18:48:26.945Z,15.50
2023-05-10T18:50:56.253Z,15.40
2023-05-10T18:53:24.246Z,15.50
2023-05-10T18:55:56.955Z,15.40
2023-05-10T18:58:25.488Z,15.40
2023-05-10T19:00:53.523Z,15.40
2023-05-10T19:03:22.447Z,15.30
2023-05-10T19:05:50.440Z,15.30
2023-05-10T19:08:19.849Z,15.30
2023-05-10T19:10:47.829Z,15.30
2023-05-10T19:13:15.972Z,15.30
2023-05-10T19:15:44.095Z,15.30
2023-05-10T19:18:12.722Z,15.20
2023-05-10T19:20:42.343Z,15.20
2023-05-10T19:23:10.625Z,15.20
2023-05-10T19:25:42.249Z,15.20
2023-05-10T19:28:10.935Z,15.20
2023-05-10T19:30:38.916Z,15.10
2023-05-10T19:33:06.975Z,15.10
2023-05-10T19:35:35.128Z,15.10
2023-05-10T19:38:03.160Z,15.10
2023-05-10T19:40:31.186Z,15.10
2023-05-10T19:43:00.531Z,15.10
2023-05-10T19:45:28.516Z,15.00
2023-05-10T19:47:56.569Z,15.00
2023-05-10T19:50:24.700Z,15.00
2023-05-10T19:52:52.730Z,14.90
2023-05-10T19:55:27.906Z,14.90
2023-05-10T19:57:56.206Z,14.90
2023-05-10T20:00:27.258Z,14.90
2023-05-10T20:02:56.173Z,14.90
2023-05-10T20:05:24.690Z,14.90
2023-05-10T20:07:52.633Z,14.80
2023-05-10T20:10:21.605Z,14.80
2023-05-10T20:12:51.321Z,14.80
2023-05-10T20:15:20.068Z,14.80
2023-05-10T20:17:51.098Z,14.80
2023-05-10T20:20:20.096Z,14.80
2023-05-10T20:22:48.654Z,14.70
2023-05-10T20:25:17.044Z,14.60
2023-05-10T20:27:45.169Z,14.60
2023-05-10T20:30:13.619Z,14.60
2023-05-10T20:32:41.734Z,14.60
2023-05-10T20:35:11.378Z,14.50
2023-05-10T20:37:39.434Z,14.50
2023-05-10T20:40:08.032Z,14.40
2023-05-10T20:42:36.220Z,14.40
2023-05-10T20:45:04.443Z,14.30
2023-05-10T20:47:33.631Z,14.30
2023-05-10T20:50:01.705Z,14.30
2023-05-10T20:52:31.200Z,14.20
2023-05-10T20:54:59.322Z,14.20
2023-05-10T20:57:27.380Z,14.20
2023-05-10T20:59:55.656Z,14.10
2023-05-10T21:02:23.638Z,14.10
2023-05-10T21:04:51.725Z,14.10
2023-05-10T21:07:19.810Z,14.10
2023-05-10T21:09:49.102Z,14.10
2023-05-10T21:12:17.070Z,14.00
2023-05-10T21:14:46.931Z,14.00
2023-05-10T21:17:14.924Z,14.00
2023-05-10T21:19:42.873Z,13.90
2023-05-10T21:22:11.174Z,13.90
2023-05-10T21:24:39.241Z,13.90
2023-05-10T21:27:09.100Z,13.80
2023-05-10T21:29:37.103Z,13.80
2023-05-10T21:32:05.208Z,13.80
2023-05-10T21:34:33.255Z,13.70
2023-05-10T21:37:01.247Z,13.70
2023-05-10T21:39:29.170Z,13.70
2023-05-10T21:41:57.355Z,13.80
2023-05-10T21:44:26.702Z,13.80
2023-05-10T21:46:54.664Z,13.80
2023-05-10T21:49:22.614Z,13.70
2023-05-10T21:51:50.585Z,13.80
2023-05-10T21:54:18.646Z,13.70
2023-05-10T21:56:46.612Z,13.70
2023-05-10T21:59:14.624Z,13.70
2023-05-10T22:01:44.188Z,13.90
2023-05-10T22:04:12.184Z,13.70
2023-05-10T22:06:40.147Z,13.70
2023-05-10T22:09:08.121Z,13.70
2023-05-10T22:11:36.086Z,13.70
2023-05-10T22:14:04.121Z,13.60
2023-05-10T22:16:32.342Z,13.60
2023-05-10T22:19:01.700Z,13.60
2023-05-10T22:21:29.749Z,13.60
2023-05-10T22:23:57.788Z,14.40
2023-05-10T22:26:26.095Z,13.60
2023-05-10T22:28:54.057Z,13.60
2023-05-10T22:31:22.094Z,13.60
2023-05-10T22:33:50.052Z,12.70
2023-05-10T22:36:19.348Z,13.50
2023-05-10T22:38:47.299Z,13.40
2023-05-10T22:41:15.271Z,13.40
2023-05-10T22:43:43.774Z,13.40
2023-05-10T22:46:12.147Z,13.30
2023-05-10T22:48:40.123Z,13.30
2023-05-10T22:51:08.061Z,13.30
2023-05-10T22:53:37.374Z,13.30
2023-05-10T22:56:05.424Z,13.30
2023-05-10T22:58:33.459Z,13.30
2023-05-10T23:01:01.512Z,13.30
2023-05-10T23:03:29.541Z,13.30
2023-05-10T23:05:57.581Z,13.30
2023-05-10T23:08:25.528Z,13.30
2023-05-10T23:10:54.832Z,13.30
2023-05-10T23:13:23.082Z,13.30
2023-05-10T23:15:51.207Z,13.30
2023-05-10T23:18:19.276Z,13.30
2023-05-10T23:20:47.322Z,13.30
2023-05-10T23:23:15.783Z,13.20
2023-05-10T23:25:44.166Z,13.20
2023-05-10T23:28:13.502Z,13.20
2023-05-10T23:30:41.443Z,13.10
2023-05-10T23:33:09.584Z,13.10
2023-05-10T23:35:37.576Z,13.10
2023-05-10T23:38:05.691Z,13.10
2023-05-10T23:40:33.621Z,13.10
2023-05-10T23:43:01.555Z,13.10
2023-05-10T23:45:30.961Z,13.00
2023-05-10T23:47:59.026Z,13.00
2023-05-10T23:50:27.097Z,13.00
2023-05-10T23:52:55.619Z,13.00
2023-05-10T23:55:23.635Z,12.90
2023-05-10T23:57:51.749Z,12.90
